createdAt,value
2023-10-19T00:00:41.707Z,67.92
2023-10-19T00:01:41.843Z,67.92
2023-10-19T00:02:41.711Z,67.92
2023-10-19T00:03:41.728Z,67.83
2023-10-19T00:04:41.732Z,67.83
2023-10-19T00:05:41.737Z,67.92
2023-10-19T00:06:41.678Z,67.83
2023-10-19T00:07:41.704Z,67.83
2023-10-19T00:08:41.668Z,67.83
2023-10-19T00:09:41.688Z,67.83
2023-10-19T00:10:41.728Z,67.92
2023-10-19T00:11:41.654Z,67.92
2023-10-19T00:12:41.649Z,67.92
2023-10-19T00:13:41.723Z,68.02
2023-10-19T00:14:41.649Z,68.02
2023-10-19T00:15:41.643Z,67.73
2023-10-19T00:16:41.821Z,68.02
2023-10-19T00:17:41.666Z,68.02
2023-10-19T00:18:41.628Z,68.02
2023-10-19T00:19:41.652Z,67.92
2023-10-19T00:20:41.616Z,67.92
2023-10-19T00:21:41.615Z,68.02
2023-10-19T00:22:41.624Z,67.73
2023-10-19T00:23:41.614Z,67.92
2023-10-19T00:24:41.605Z,68.02
2023-10-19T00:25:41.687Z,68.02
2023-10-19T00:26:41.607Z,68.02
2023-10-19T00:27:41.593Z,68.02
2023-10-19T00:28:41.644Z,67.83
2023-10-19T00:29:41.608Z,68.02
2023-10-19T00:30:41.587Z,67.92
2023-10-19T00:31:41.738Z,67.83
2023-10-19T00:32:41.601Z,68.12
2023-10-19T00:33:41.566Z,68.12
2023-10-19T00:34:41.647Z,68.12
2023-10-19T00:35:41.559Z,67.73
2023-10-19T00:36:41.561Z,67.83
2023-10-19T00:37:41.576Z,68.02
2023-10-19T00:38:41.547Z,67.73
2023-10-19T00:39:41.558Z,67.73
2023-10-19T00:40:41.577Z,68.02
2023-10-19T00:41:41.553Z,68.12
2023-10-19T00:42:41.538Z,67.83
2023-10-19T00:43:41.571Z,67.73
2023-10-19T00:44:41.530Z,67.73
2023-10-19T00:45:41.544Z,67.83
2023-10-19T00:46:41.552Z,67.73
2023-10-19T00:47:41.822Z,67.73
2023-10-19T00:48:41.516Z,67.92
2023-10-19T00:49:41.533Z,67.73
2023-10-19T00:50:41.557Z,67.73
2023-10-19T00:51:41.511Z,67.83
2023-10-19T00:52:41.573Z,67.73
2023-10-19T00:53:41.495Z,67.83
2023-10-19T00:54:41.492Z,68.12
2023-10-19T00:55:41.530Z,67.83
2023-10-19T00:56:41.494Z,68.12
2023-10-19T00:57:41.613Z,68.12
2023-10-19T00:58:41.503Z,67.73
2023-10-19T00:59:41.478Z,67.73
2023-10-19T01:00:41.481Z,67.92
2023-10-19T01:01:41.500Z,67.73
2023-10-19T01:02:41.540Z,67.73
2023-10-19T01:03:41.526Z,67.73
2023-10-19T01:04:41.499Z,67.83
2023-10-19T01:05:41.456Z,67.92
2023-10-19T01:06:41.447Z,67.92
2023-10-19T01:07:41.510Z,67.73
2023-10-19T01:08:41.458Z,67.92
2023-10-19T01:09:41.440Z,67.83
2023-10-19T01:10:41.483Z,67.73
2023-10-19T01:11:41.444Z,67.54
2023-10-19T01:12:41.443Z,68.30
2023-10-19T01:13:41.471Z,67.73
2023-10-19T01:14:41.420Z,67.73
2023-10-19T01:15:41.446Z,67.73
2023-10-19T01:16:41.464Z,68.12
2023-10-19T01:17:41.854Z,67.73
2023-10-19T01:18:41.409Z,67.83
2023-10-19T01:19:41.435Z,67.92
2023-10-19T01:20:41.404Z,67.73
2023-10-19T01:21:41.394Z,67.92
2023-10-19T01:22:41.414Z,67.73
2023-10-19T01:23:41.388Z,67.73
2023-10-19T01:24:41.463Z,67.83
2023-10-19T01:25:41.401Z,67.54
2023-10-19T01:26:41.389Z,67.54
2023-10-19T01:27:41.370Z,67.63
2023-10-19T01:28:41.418Z,67.63
2023-10-19T01:29:41.386Z,67.73
2023-10-19T01:30:41.365Z,67.73
2023-10-19T01:31:41.456Z,67.73
2023-10-19T01:32:41.420Z,67.73
2023-10-19T01:33:41.350Z,67.92
2023-10-19T01:34:41.471Z,67.73
2023-10-19T01:35:41.346Z,67.83
2023-10-19T01:36:41.338Z,67.73
2023-10-19T01:37:41.366Z,67.73
2023-10-19T01:38:41.350Z,67.83
2023-10-19T01:39:41.337Z,67.83
2023-10-19T01:40:41.346Z,67.92
2023-10-19T01:41:41.324Z,67.92
2023-10-19T01:42:41.330Z,67.73
2023-10-19T01:43:41.531Z,67.63
2023-10-19T01:44:41.315Z,67.73
2023-10-19T01:45:41.333Z,67.73
2023-10-19T01:46:41.445Z,67.83
2023-10-19T01:47:41.398Z,68.21
2023-10-19T01:48:41.297Z,67.73
2023-10-19T01:49:41.311Z,68.21
2023-10-19T01:50:41.289Z,68.02
2023-10-19T01:51:41.298Z,67.73
2023-10-19T01:52:41.307Z,67.73
2023-10-19T01:53:41.282Z,67.83
2023-10-19T01:54:41.281Z,67.73
2023-10-19T01:55:41.336Z,67.73
2023-10-19T01:56:41.347Z,67.73
2023-10-19T01:57:41.274Z,67.63
2023-10-19T01:58:41.291Z,68.21
2023-10-19T01:59:41.255Z,67.73
2023-10-19T02:00:41.283Z,67.73
2023-10-19T02:01:41.400Z,67.63
2023-10-19T02:02:41.411Z,67.63
2023-10-19T02:03:41.271Z,67.54
2023-10-19T02:04:41.269Z,68.21
2023-10-19T02:05:41.237Z,67.73
2023-10-19T02:06:41.242Z,67.63
2023-10-19T02:07:41.260Z,67.63
2023-10-19T02:08:41.225Z,68.21
2023-10-19T02:09:41.213Z,68.30
2023-10-19T02:10:41.277Z,68.21
2023-10-19T02:11:41.232Z,67.73
2023-10-19T02:12:41.216Z,68.30
2023-10-19T02:13:41.334Z,68.30
2023-10-19T02:14:41.249Z,68.21
2023-10-19T02:15:41.206Z,68.21
2023-10-19T02:16:41.267Z,68.21
2023-10-19T02:17:41.251Z,68.40
2023-10-19T02:18:41.192Z,68.40
2023-10-19T02:19:41.191Z,68.21
2023-10-19T02:20:41.612Z,68.30
2023-10-19T02:21:41.195Z,67.63
2023-10-19T02:22:41.229Z,68.40
2023-10-19T02:23:41.179Z,68.40
2023-10-19T02:24:41.219Z,68.40
2023-10-19T02:25:41.225Z,68.30
2023-10-19T02:26:41.174Z,68.30
2023-10-19T02:27:41.160Z,68.40
2023-10-19T02:28:41.166Z,68.30
2023-10-19T02:29:41.146Z,68.21
2023-10-19T02:30:41.184Z,68.40
2023-10-19T02:31:41.219Z,68.30
2023-10-19T02:32:41.193Z,67.63
2023-10-19T02:33:41.161Z,68.30
2023-10-19T02:34:41.173Z,68.30
2023-10-19T02:35:41.134Z,68.30
2023-10-19T02:36:41.126Z,67.73
2023-10-19T02:37:41.150Z,68.30
2023-10-19T02:38:41.116Z,67.63
2023-10-19T02:39:42.763Z,67.73
2023-10-19T02:40:41.143Z,68.12
2023-10-19T02:41:41.116Z,68.40
2023-10-19T02:42:41.106Z,68.30
2023-10-19T02:43:41.116Z,68.21
2023-10-19T02:44:41.101Z,67.83
2023-10-19T02:45:41.102Z,68.21
2023-10-19T02:46:41.244Z,68.21
2023-10-19T02:47:41.132Z,67.54
2023-10-19T02:48:41.095Z,68.21
2023-10-19T02:49:41.230Z,67.73
2023-10-19T02:50:41.089Z,67.44
2023-10-19T02:51:41.101Z,67.63
2023-10-19T02:52:41.114Z,68.30
2023-10-19T02:53:41.089Z,67.63
2023-10-19T02:54:41.098Z,68.30
2023-10-19T02:55:41.140Z,67.73
2023-10-19T02:56:41.068Z,68.30
2023-10-19T02:57:41.062Z,68.30
2023-10-19T02:58:41.209Z,68.30
2023-10-19T02:59:41.064Z,68.02
2023-10-19T03:00:41.093Z,68.30
2023-10-19T03:01:41.095Z,68.12
2023-10-19T03:02:41.106Z,68.40
2023-10-19T03:03:41.046Z,68.30
2023-10-19T03:04:41.071Z,68.40
2023-10-19T03:05:41.058Z,68.40
2023-10-19T03:06:41.090Z,68.30
2023-10-19T03:07:41.034Z,68.30
2023-10-19T03:08:41.026Z,68.30
2023-10-19T03:09:41.034Z,68.12
2023-10-19T03:10:41.066Z,68.12
2023-10-19T03:11:41.020Z,68.40
2023-10-19T03:12:41.007Z,68.12
2023-10-19T03:13:41.061Z,68.12
2023-10-19T03:14:41.015Z,68.30
2023-10-19T03:15:41.030Z,68.21
2023-10-19T03:16:41.158Z,68.21
2023-10-19T03:17:43.513Z,68.02
2023-10-19T03:18:40.997Z,68.02
2023-10-19T03:19:41.039Z,68.12
2023-10-19T03:20:40.990Z,68.21
2023-10-19T03:21:41.092Z,68.21
2023-10-19T03:22:41.020Z,68.50
2023-10-19T03:23:40.962Z,68.30
2023-10-19T03:24:40.966Z,67.73
2023-10-19T03:25:41.018Z,68.30
2023-10-19T03:26:40.951Z,68.40
2023-10-19T03:27:40.941Z,68.30
2023-10-19T03:28:40.989Z,68.12
2023-10-19T03:29:40.944Z,67.73
2023-10-19T03:30:40.962Z,68.40
2023-10-19T03:31:40.963Z,68.40
2023-10-19T03:32:40.936Z,68.30
2023-10-19T03:33:40.935Z,68.21
2023-10-19T03:34:41.105Z,68.12
2023-10-19T03:35:40.915Z,68.21
2023-10-19T03:36:40.907Z,68.40
2023-10-19T03:37:40.961Z,68.21
2023-10-19T03:38:40.897Z,68.21
2023-10-19T03:39:40.894Z,68.21
2023-10-19T03:40:40.963Z,68.02
2023-10-19T03:41:40.888Z,68.21
2023-10-19T03:42:40.882Z,68.30
2023-10-19T03:43:40.969Z,68.30
2023-10-19T03:44:40.874Z,68.30
2023-10-19T03:45:40.870Z,68.30
2023-10-19T03:46:40.918Z,68.30
2023-10-19T03:47:40.874Z,68.40
2023-10-19T03:48:40.866Z,68.40
2023-10-19T03:49:40.884Z,68.30
2023-10-19T03:50:40.855Z,68.30
2023-10-19T03:51:40.855Z,68.12
2023-10-19T03:52:40.901Z,68.21
2023-10-19T03:53:40.881Z,68.30
2023-10-19T03:54:40.850Z,67.83
2023-10-19T03:55:40.873Z,68.30
2023-10-19T03:56:40.836Z,68.12
2023-10-19T03:57:40.834Z,68.40
2023-10-19T03:58:40.879Z,67.73
2023-10-19T03:59:40.900Z,68.30
2023-10-19T04:00:40.825Z,68.40
2023-10-19T04:01:40.876Z,68.40
2023-10-19T04:02:40.901Z,68.12
2023-10-19T04:03:40.845Z,67.63
2023-10-19T04:04:41.013Z,68.30
2023-10-19T04:05:40.817Z,68.40
2023-10-19T04:06:40.809Z,67.63
2023-10-19T04:07:40.941Z,67.73
2023-10-19T04:08:40.813Z,68.30
2023-10-19T04:09:40.833Z,68.30
2023-10-19T04:10:40.823Z,68.21
2023-10-19T04:11:40.789Z,68.40
2023-10-19T04:12:40.792Z,68.40
2023-10-19T04:13:40.846Z,68.02
2023-10-19T04:14:40.791Z,68.12
2023-10-19T04:15:40.779Z,68.30
2023-10-19T04:16:40.845Z,68.12
2023-10-19T04:17:40.802Z,68.30
2023-10-19T04:18:40.778Z,68.30
2023-10-19T04:19:40.838Z,68.40
2023-10-19T04:20:40.767Z,68.30
2023-10-19T04:21:40.757Z,68.30
2023-10-19T04:22:40.830Z,68.30
2023-10-19T04:23:40.771Z,68.30
2023-10-19T04:24:40.751Z,68.02
2023-10-19T04:25:40.824Z,68.30
2023-10-19T04:26:40.753Z,68.40
2023-10-19T04:27:40.741Z,68.30
2023-10-19T04:28:40.759Z,68.30
2023-10-19T04:29:40.732Z,68.40
2023-10-19T04:30:40.738Z,68.21
2023-10-19T04:31:40.740Z,68.12
2023-10-19T04:32:40.767Z,68.12
2023-10-19T04:33:40.720Z,68.30
2023-10-19T04:34:40.729Z,68.12
2023-10-19T04:35:40.709Z,68.30
2023-10-19T04:36:40.701Z,68.30
2023-10-19T04:37:40.791Z,68.02
2023-10-19T04:38:40.698Z,68.12
2023-10-19T04:39:40.691Z,68.30
2023-10-19T04:40:40.740Z,68.12
2023-10-19T04:41:40.744Z,68.12
2023-10-19T04:42:40.690Z,68.21
2023-10-19T04:43:41.003Z,68.21
2023-10-19T04:44:40.673Z,68.02
2023-10-19T04:45:40.675Z,68.12
2023-10-19T04:46:40.737Z,68.21
2023-10-19T04:47:40.797Z,68.21
2023-10-19T04:48:40.679Z,68.02
2023-10-19T04:49:40.704Z,68.21
2023-10-19T04:50:40.662Z,68.21
2023-10-19T04:51:40.653Z,68.21
2023-10-19T04:52:40.751Z,68.21
2023-10-19T04:53:40.687Z,68.21
2023-10-19T04:54:40.643Z,68.12
2023-10-19T04:55:40.692Z,68.21
2023-10-19T04:56:40.632Z,68.12
2023-10-19T04:57:40.762Z,68.02
2023-10-19T04:58:40.674Z,68.02
2023-10-19T04:59:40.626Z,68.12
2023-10-19T05:00:40.619Z,68.02
2023-10-19T05:01:40.828Z,68.12
2023-10-19T05:02:40.721Z,68.12
2023-10-19T05:03:40.655Z,68.12
2023-10-19T05:04:40.682Z,68.02
2023-10-19T05:05:40.599Z,68.21
2023-10-19T05:06:40.606Z,68.12
2023-10-19T05:07:40.625Z,68.12
2023-10-19T05:08:40.593Z,68.12
2023-10-19T05:09:40.596Z,68.12
2023-10-19T05:10:40.621Z,68.12
2023-10-19T05:11:40.576Z,68.15
2023-10-19T05:12:40.575Z,68.21
2023-10-19T05:13:40.655Z,68.21
2023-10-19T05:14:40.667Z,68.02
2023-10-19T05:15:40.565Z,68.21
2023-10-19T05:16:40.697Z,68.24
2023-10-19T05:17:40.575Z,68.12
2023-10-19T05:18:40.557Z,68.12
2023-10-19T05:19:40.678Z,68.21
2023-10-19T05:20:40.551Z,68.21
2023-10-19T05:21:40.553Z,68.12
2023-10-19T05:22:40.564Z,68.24
2023-10-19T05:23:40.538Z,68.21
2023-10-19T05:24:40.537Z,68.24
2023-10-19T05:25:40.574Z,68.21
2023-10-19T05:26:40.540Z,68.21
2023-10-19T05:27:40.538Z,68.21
2023-10-19T05:28:40.610Z,68.12
2023-10-19T05:29:40.541Z,68.21
2023-10-19T05:30:40.513Z,68.24
2023-10-19T05:31:40.578Z,68.12
2023-10-19T05:32:40.699Z,68.21
2023-10-19T05:33:40.506Z,68.21
2023-10-19T05:34:40.573Z,68.21
2023-10-19T05:35:40.500Z,68.12
2023-10-19T05:36:40.504Z,68.21
2023-10-19T05:37:40.537Z,68.12
2023-10-19T05:38:40.481Z,68.12
2023-10-19T05:39:40.482Z,68.40
2023-10-19T05:40:40.482Z,68.12
2023-10-19T05:41:40.486Z,67.92
2023-10-19T05:42:40.472Z,68.21
2023-10-19T05:43:40.496Z,68.12
2023-10-19T05:44:40.458Z,68.21
2023-10-19T05:45:41.858Z,68.02
2023-10-19T05:46:40.551Z,68.02
2023-10-19T05:47:40.505Z,68.02
2023-10-19T05:48:40.446Z,68.12
2023-10-19T05:49:40.465Z,68.30
2023-10-19T05:50:40.437Z,68.24
2023-10-19T05:51:40.442Z,68.21
2023-10-19T05:52:40.438Z,68.21
2023-10-19T05:53:40.431Z,68.24
2023-10-19T05:54:40.439Z,68.05
2023-10-19T05:55:40.440Z,68.24
2023-10-19T05:56:40.427Z,68.21
2023-10-19T05:57:40.413Z,68.21
2023-10-19T05:58:40.705Z,68.24
2023-10-19T05:59:40.417Z,68.02
2023-10-19T06:00:40.428Z,68.02
2023-10-19T06:01:40.588Z,68.21
2023-10-19T06:02:40.485Z,68.02
2023-10-19T06:03:40.614Z,68.02
2023-10-19T06:04:40.498Z,68.05
2023-10-19T06:05:40.385Z,68.05
2023-10-19T06:06:40.381Z,68.34
2023-10-19T06:07:40.447Z,68.34
2023-10-19T06:08:40.382Z,68.15
2023-10-19T06:09:40.376Z,68.44
2023-10-19T06:10:40.621Z,68.44
2023-10-19T06:11:40.368Z,67.76
2023-10-19T06:12:40.359Z,68.34
2023-10-19T06:13:40.404Z,68.34
2023-10-19T06:14:40.360Z,68.34
2023-10-19T06:15:40.385Z,68.34
2023-10-19T06:16:40.541Z,68.34
2023-10-19T06:17:40.504Z,68.44
2023-10-19T06:18:40.380Z,68.34
2023-10-19T06:19:40.424Z,68.34
2023-10-19T06:20:40.346Z,67.67
2023-10-19T06:21:40.334Z,67.67
2023-10-19T06:22:40.366Z,68.34
2023-10-19T06:23:40.327Z,67.76
2023-10-19T06:24:40.325Z,68.34
2023-10-19T06:25:40.379Z,68.44
2023-10-19T06:26:40.328Z,68.24
2023-10-19T06:27:40.321Z,68.24
2023-10-19T06:28:40.323Z,68.24
2023-10-19T06:29:40.305Z,68.15
2023-10-19T06:30:40.296Z,68.15
2023-10-19T06:31:40.332Z,68.05
2023-10-19T06:32:40.409Z,68.24
2023-10-19T06:33:40.321Z,68.24
2023-10-19T06:34:40.322Z,68.05
2023-10-19T06:35:40.294Z,67.86
2023-10-19T06:36:40.286Z,68.05
2023-10-19T06:37:40.311Z,67.96
2023-10-19T06:38:40.276Z,68.15
2023-10-19T06:39:40.272Z,67.96
2023-10-19T06:40:40.316Z,67.96
2023-10-19T06:41:40.268Z,68.15
2023-10-19T06:42:40.271Z,68.15
2023-10-19T06:43:40.266Z,68.24
2023-10-19T06:44:40.258Z,68.15
2023-10-19T06:45:40.430Z,68.24
2023-10-19T06:46:40.340Z,68.15
2023-10-19T06:47:40.267Z,68.24
2023-10-19T06:48:40.298Z,68.34
2023-10-19T06:49:40.281Z,68.24
2023-10-19T06:50:40.909Z,68.44
2023-10-19T06:51:40.232Z,68.63
2023-10-19T06:52:40.283Z,68.24
2023-10-19T06:53:40.231Z,68.34
2023-10-19T06:54:40.233Z,68.34
2023-10-19T06:55:40.228Z,68.34
2023-10-19T06:56:40.213Z,68.53
2023-10-19T06:57:40.219Z,68.63
2023-10-19T06:58:40.230Z,68.34
2023-10-19T06:59:40.213Z,68.24
2023-10-19T07:00:40.201Z,68.73
2023-10-19T07:01:40.279Z,68.63
2023-10-19T07:02:40.221Z,68.63
2023-10-19T07:03:40.210Z,68.53
2023-10-19T07:04:40.214Z,68.73
2023-10-19T07:05:40.207Z,68.73
2023-10-19T07:06:40.187Z,68.73
2023-10-19T07:07:40.220Z,68.63
2023-10-19T07:08:40.177Z,68.82
2023-10-19T07:09:40.188Z,68.53
2023-10-19T07:10:40.195Z,68.53
2023-10-19T07:11:40.190Z,68.63
2023-10-19T07:12:40.170Z,68.63
2023-10-19T07:13:40.193Z,68.63
2023-10-19T07:14:40.164Z,68.63
2023-10-19T07:15:40.153Z,68.53
2023-10-19T07:16:40.177Z,68.53
2023-10-19T07:17:40.186Z,68.63
2023-10-19T07:18:40.155Z,68.53
2023-10-19T07:19:40.180Z,68.73
2023-10-19T07:20:40.160Z,68.53
2023-10-19T07:21:40.158Z,68.53
2023-10-19T07:22:40.156Z,68.73
2023-10-19T07:23:40.125Z,68.73
2023-10-19T07:24:40.122Z,68.73
2023-10-19T07:25:40.151Z,68.73
2023-10-19T07:26:40.112Z,68.82
2023-10-19T07:27:40.153Z,68.82
2023-10-19T07:28:40.137Z,68.91
2023-10-19T07:29:40.106Z,68.73
2023-10-19T07:30:40.100Z,68.73
2023-10-19T07:31:40.251Z,68.44
2023-10-19T07:32:40.139Z,68.63
2023-10-19T07:33:40.112Z,68.63
2023-10-19T07:34:40.110Z,68.73
2023-10-19T07:35:40.217Z,68.44
2023-10-19T07:36:40.090Z,68.63
2023-10-19T07:37:40.162Z,68.73
2023-10-19T07:38:40.095Z,68.63
2023-10-19T07:39:40.076Z,68.44
2023-10-19T07:40:40.082Z,68.63
2023-10-19T07:41:40.066Z,68.82
2023-10-19T07:42:40.096Z,68.73
2023-10-19T07:43:40.103Z,68.73
2023-10-19T07:44:40.060Z,68.82
2023-10-19T07:45:40.100Z,69.01
2023-10-19T07:46:40.091Z,69.01
2023-10-19T07:47:40.095Z,68.63
2023-10-19T07:48:40.049Z,69.01
2023-10-19T07:49:40.085Z,68.63
2023-10-19T07:50:40.037Z,68.73
2023-10-19T07:51:40.045Z,68.63
2023-10-19T07:52:40.114Z,68.73
2023-10-19T07:53:40.152Z,68.73
2023-10-19T07:54:40.025Z,68.82
2023-10-19T07:55:40.196Z,68.63
2023-10-19T07:56:40.014Z,69.01
2023-10-19T07:57:40.023Z,68.63
2023-10-19T07:58:40.060Z,68.73
2023-10-19T07:59:40.030Z,68.82
2023-10-19T08:00:40.028Z,68.82
2023-10-19T08:01:40.062Z,68.82
2023-10-19T08:02:40.042Z,68.53
2023-10-19T08:03:40.024Z,68.53
2023-10-19T08:04:40.275Z,69.01
2023-10-19T08:05:40.071Z,68.73
2023-10-19T08:06:39.987Z,69.01
2023-10-19T08:07:40.052Z,69.01
2023-10-19T08:08:40.010Z,68.63
2023-10-19T08:09:40.098Z,68.73
2023-10-19T08:10:40.012Z,68.91
2023-10-19T08:11:39.980Z,68.63
2023-10-19T08:12:39.997Z,68.63
2023-10-19T08:13:40.088Z,68.73
2023-10-19T08:14:39.988Z,68.63
2023-10-19T08:15:40.020Z,68.73
2023-10-19T08:16:40.012Z,68.63
2023-10-19T08:17:39.997Z,68.53
2023-10-19T08:18:40.027Z,69.01
2023-10-19T08:19:40.018Z,68.82
2023-10-19T08:20:39.943Z,68.73
2023-10-19T08:21:40.001Z,69.01
2023-10-19T08:22:39.988Z,68.82
2023-10-19T08:23:40.017Z,68.63
2023-10-19T08:24:39.915Z,69.11
2023-10-19T08:25:55.390Z,68.63
2023-10-19T08:26:39.912Z,68.63
2023-10-19T08:27:39.901Z,68.82
2023-10-19T08:28:39.928Z,68.63
2023-10-19T08:29:39.893Z,68.82
2023-10-19T08:30:39.902Z,68.82
2023-10-19T08:31:39.954Z,69.11
2023-10-19T08:32:39.907Z,68.73
2023-10-19T08:33:39.904Z,68.63
2023-10-19T08:34:39.916Z,68.63
2023-10-19T08:35:39.973Z,68.82
2023-10-19T08:36:39.878Z,68.73
2023-10-19T08:37:39.886Z,69.01
2023-10-19T08:38:39.880Z,68.73
2023-10-19T08:39:39.856Z,68.91
2023-10-19T08:40:39.882Z,68.63
2023-10-19T08:41:39.963Z,68.82
2023-10-19T08:42:39.850Z,68.82
2023-10-19T08:43:39.882Z,68.53
2023-10-19T08:44:39.844Z,68.63
2023-10-19T08:45:39.894Z,68.63
2023-10-19T08:46:39.868Z,68.63
2023-10-19T08:47:39.881Z,68.63
2023-10-19T08:48:39.892Z,68.63
2023-10-19T08:49:39.860Z,68.73
2023-10-19T08:50:39.833Z,69.11
2023-10-19T08:51:39.825Z,68.63
2023-10-19T08:52:39.870Z,68.53
2023-10-19T08:53:39.807Z,68.63
2023-10-19T08:54:39.813Z,69.05
2023-10-19T08:55:48.277Z,68.63
2023-10-19T08:56:39.800Z,68.73
2023-10-19T08:57:39.824Z,68.73
2023-10-19T08:58:39.827Z,68.73
2023-10-19T08:59:39.788Z,68.63
2023-10-19T09:00:39.789Z,68.73
2023-10-19T09:01:39.829Z,68.63
2023-10-19T09:02:39.883Z,68.63
2023-10-19T09:03:39.812Z,68.63
2023-10-19T09:04:39.830Z,68.82
2023-10-19T09:05:39.856Z,69.01
2023-10-19T09:06:39.762Z,69.14
2023-10-19T09:07:39.767Z,69.11
2023-10-19T09:08:39.774Z,69.01
2023-10-19T09:09:39.756Z,69.11
2023-10-19T09:10:39.798Z,69.01
2023-10-19T09:11:39.744Z,68.91
2023-10-19T09:12:39.767Z,69.11
2023-10-19T09:13:39.772Z,68.95
2023-10-19T09:14:39.754Z,69.14
2023-10-19T09:15:39.747Z,69.01
2023-10-19T09:16:39.757Z,68.82
2023-10-19T09:17:39.752Z,68.95
2023-10-19T09:18:39.953Z,69.01
2023-10-19T09:19:39.866Z,69.05
2023-10-19T09:30:39.312Z,68.95
2023-10-19T09:31:39.337Z,68.95
2023-10-19T09:33:29.132Z,68.85
2023-10-19T09:34:29.139Z,68.85
2023-10-19T09:35:29.117Z,68.76
2023-10-19T09:36:29.122Z,68.85
2023-10-19T09:37:29.174Z,68.85
2023-10-19T09:38:29.111Z,68.95
2023-10-19T09:39:29.104Z,68.95
2023-10-19T09:40:29.172Z,69.11
2023-10-19T09:41:29.100Z,68.85
2023-10-19T09:42:29.092Z,68.85
2023-10-19T09:43:29.135Z,68.85
2023-10-19T09:44:29.098Z,68.85
2023-10-19T09:45:29.081Z,68.95
2023-10-19T09:46:29.225Z,69.43
2023-10-19T09:47:29.309Z,68.85
2023-10-19T09:48:29.107Z,68.76
2023-10-19T09:49:29.120Z,68.95
2023-10-19T09:50:29.066Z,68.85
2023-10-19T09:51:29.069Z,69.05
2023-10-19T09:52:29.075Z,68.76
2023-10-19T09:53:29.051Z,68.95
2023-10-19T09:54:29.073Z,68.85
2023-10-19T09:55:29.619Z,68.95
2023-10-19T09:56:29.093Z,68.95
2023-10-19T09:57:29.076Z,68.76
2023-10-19T09:58:29.087Z,68.85
2023-10-19T09:59:29.076Z,68.95
2023-10-19T10:00:29.062Z,68.76
2023-10-19T10:01:29.110Z,68.85
2023-10-19T10:02:29.134Z,68.95
2023-10-19T10:03:29.171Z,68.95
2023-10-19T10:04:29.093Z,68.95
2023-10-19T10:05:29.056Z,68.95
2023-10-19T10:06:29.062Z,69.05
2023-10-19T10:07:41.202Z,68.95
2023-10-19T10:08:29.048Z,69.05
2023-10-19T10:09:29.051Z,68.95
2023-10-19T10:10:29.072Z,68.76
2023-10-19T10:11:29.085Z,68.95
2023-10-19T10:12:29.043Z,68.85
2023-10-19T10:13:29.101Z,68.85
2023-10-19T10:14:31.501Z,68.85
2023-10-19T10:15:29.044Z,68.95
2023-10-19T10:16:29.156Z,68.95
2023-10-19T10:17:29.152Z,68.85
2023-10-19T10:18:29.086Z,68.85
2023-10-19T10:19:29.096Z,68.85
2023-10-19T10:20:29.035Z,68.95
2023-10-19T10:21:29.019Z,68.76
2023-10-19T10:22:29.101Z,68.95
2023-10-19T10:23:29.028Z,69.05
2023-10-19T10:24:29.011Z,68.95
2023-10-19T10:25:29.355Z,68.76
2023-10-19T10:26:29.008Z,68.95
2023-10-19T10:27:29.011Z,68.76
2023-10-19T10:28:29.080Z,68.95
2023-10-19T10:29:29.008Z,69.05
2023-10-19T10:30:28.998Z,68.95
2023-10-19T10:31:29.100Z,68.76
2023-10-19T10:32:28.990Z,69.05
2023-10-19T10:33:28.984Z,68.95
2023-10-19T10:34:28.998Z,68.76
2023-10-19T10:35:28.973Z,68.76
2023-10-19T10:36:28.967Z,68.85
2023-10-19T10:37:28.958Z,69.05
2023-10-19T10:38:28.958Z,69.05
2023-10-19T10:39:30.358Z,68.89
2023-10-19T10:40:28.963Z,68.79
2023-10-19T10:41:28.954Z,68.95
2023-10-19T10:42:28.941Z,68.95
2023-10-19T10:43:28.938Z,68.95
2023-10-19T10:44:28.946Z,68.89
2023-10-19T10:45:28.942Z,68.89
2023-10-19T10:46:28.962Z,69.14
2023-10-19T10:47:29.003Z,68.89
2023-10-19T10:48:28.920Z,69.18
2023-10-19T10:49:28.934Z,68.66
2023-10-19T10:50:28.957Z,69.34
2023-10-19T10:51:28.909Z,68.57
2023-10-19T10:52:28.910Z,68.57
2023-10-19T10:53:28.902Z,68.70
2023-10-19T10:54:28.911Z,68.98
2023-10-19T10:55:28.929Z,68.98
2023-10-19T10:56:28.970Z,68.95
2023-10-19T10:57:28.912Z,68.79
2023-10-19T10:58:28.895Z,68.98
2023-10-19T10:59:28.907Z,68.95
2023-10-19T11:00:28.979Z,68.89
2023-10-19T11:01:28.895Z,69.27
2023-10-19T11:02:28.922Z,69.27
2023-10-19T11:03:28.872Z,69.08
2023-10-19T11:04:28.912Z,69.18
2023-10-19T11:05:29.072Z,69.18
2023-10-19T11:06:28.902Z,69.27
2023-10-19T11:07:28.880Z,69.18
2023-10-19T11:08:28.893Z,69.18
2023-10-19T11:09:28.885Z,69.08
2023-10-19T11:10:28.875Z,69.18
2023-10-19T11:11:28.870Z,69.27
2023-10-19T11:12:28.868Z,69.18
2023-10-19T11:13:28.888Z,69.18
2023-10-19T11:14:28.865Z,68.89
2023-10-19T11:15:28.866Z,69.08
2023-10-19T11:16:28.913Z,69.08
2023-10-19T11:17:28.962Z,69.18
2023-10-19T11:18:28.855Z,69.27
2023-10-19T11:19:28.854Z,69.18
2023-10-19T11:20:28.856Z,69.46
2023-10-19T11:21:28.848Z,69.37
2023-10-19T11:22:28.872Z,69.66
2023-10-19T11:23:28.952Z,69.46
2023-10-19T11:24:28.841Z,69.46
2023-10-19T11:25:28.903Z,69.56
2023-10-19T11:26:28.847Z,69.56
2023-10-19T11:34:07.146Z,69.37
2023-10-19T11:35:07.132Z,69.66
2023-10-19T11:36:07.109Z,69.95
2023-10-19T11:37:07.090Z,69.75
2023-10-19T11:38:07.121Z,69.85
2023-10-19T11:39:07.072Z,69.66
2023-10-19T11:40:07.073Z,69.85
2023-10-19T11:41:07.150Z,69.66
2023-10-19T11:42:07.072Z,69.75
2023-10-19T11:43:07.065Z,69.85
2023-10-19T11:44:07.103Z,69.95
2023-10-19T11:45:07.063Z,69.85
2023-10-19T11:46:07.096Z,69.85
2023-10-19T11:47:07.089Z,69.75
2023-10-19T11:48:07.086Z,70.23
2023-10-19T11:49:07.052Z,70.04
2023-10-19T11:50:07.161Z,69.85
2023-10-19T11:51:07.043Z,70.04
2023-10-19T11:52:07.048Z,69.75
2023-10-19T11:53:07.112Z,70.04
2023-10-19T11:54:07.064Z,70.04
2023-10-19T11:55:07.034Z,69.75
2023-10-19T11:56:07.138Z,70.04
2023-10-19T11:57:07.030Z,70.04
2023-10-19T11:58:07.020Z,69.75
2023-10-19T11:59:07.085Z,70.04
2023-10-19T12:00:07.044Z,69.85
2023-10-19T12:01:07.029Z,69.85
2023-10-19T12:02:07.105Z,69.75
2023-10-19T12:03:07.116Z,69.75
2023-10-19T12:04:07.038Z,69.85
2023-10-19T12:05:07.043Z,69.66
2023-10-19T12:06:07.012Z,69.37
2023-10-19T12:07:07.001Z,69.95
2023-10-19T12:08:07.001Z,69.75
2023-10-19T12:09:06.994Z,70.04
2023-10-19T12:10:07.047Z,70.23
2023-10-19T12:11:07.098Z,70.04
2023-10-19T12:12:06.989Z,70.04
2023-10-19T12:13:06.982Z,70.72
2023-10-19T12:14:06.988Z,70.81
2023-10-19T12:15:06.976Z,70.33
2023-10-19T12:16:07.129Z,70.62
2023-10-19T12:17:07.039Z,70.52
2023-10-19T12:18:07.039Z,70.52
2023-10-19T12:19:06.969Z,70.23
2023-10-19T12:20:07.016Z,70.43
2023-10-19T12:21:06.976Z,70.23
2023-10-19T12:22:06.956Z,70.81
2023-10-19T12:23:07.036Z,70.62
2023-10-19T12:24:06.959Z,70.52
2023-10-19T12:25:06.968Z,70.52
2023-10-19T12:26:06.990Z,70.43
2023-10-19T12:27:06.954Z,70.43
2023-10-19T12:28:06.934Z,70.52
2023-10-19T12:29:06.992Z,70.52
2023-10-19T12:30:06.937Z,70.62
2023-10-19T12:31:07.164Z,70.52
2023-10-19T12:32:07.005Z,70.72
2023-10-19T12:33:06.955Z,70.52
2023-10-19T12:34:06.921Z,70.52
2023-10-19T12:35:06.942Z,70.23
2023-10-19T12:36:06.912Z,70.52
2023-10-19T12:37:06.923Z,70.62
2023-10-19T12:38:06.937Z,70.43
2023-10-19T12:39:09.094Z,70.43
2023-10-19T12:40:06.895Z,70.33
2023-10-19T12:41:06.948Z,70.81
2023-10-19T12:42:06.909Z,70.52
2023-10-19T12:43:06.888Z,70.72
2023-10-19T12:44:06.935Z,71.00
2023-10-19T12:45:06.894Z,70.72
2023-10-19T12:46:06.935Z,70.72
2023-10-19T12:47:06.967Z,71.19
2023-10-19T12:48:06.980Z,70.81
2023-10-19T12:49:06.869Z,71.19
2023-10-19T12:50:06.933Z,70.81
2023-10-19T12:51:06.866Z,70.90
2023-10-19T12:52:06.871Z,70.81
2023-10-19T12:53:06.928Z,70.72
2023-10-19T12:54:06.858Z,70.62
2023-10-19T12:55:06.855Z,70.62
2023-10-19T12:56:06.861Z,70.72
2023-10-19T12:57:06.850Z,70.72
2023-10-19T12:58:06.857Z,70.81
2023-10-19T12:59:06.911Z,70.81
2023-10-19T13:00:06.835Z,70.90
2023-10-19T13:01:06.831Z,71.19
2023-10-19T13:02:06.914Z,71.19
2023-10-19T13:03:06.958Z,71.00
2023-10-19T13:04:06.888Z,70.90
2023-10-19T13:05:06.843Z,70.52
2023-10-19T13:06:06.831Z,70.81
2023-10-19T13:07:06.972Z,70.81
2023-10-19T13:08:06.857Z,70.81
2023-10-19T13:09:06.820Z,70.72
2023-10-19T13:10:06.861Z,70.90